Time;durP1;ratioP1;P1;durP2;ratioP2;P2;SDS_P1;SDS_P2;PMS_P1;PMS_P2;Temp;Humidity;BMP_temperature;BMP_pressure;BME280_temperature;BME280_humidity;BME280_pressure;Samples;Min_cycle;Max_cycle;Signal;HPM_P1;HPM_P2
2023/08/22 00:00:32;;;;;;;;;;;29.60;74.50;;;29.81;45.39;98957.75;4966443;28;118639;-79
2023/08/22 00:02:59;;;;;;;;;;;29.60;74.60;;;29.80;45.64;98956.16;4941859;28;118975;-78
2023/08/22 00:05:26;;;;;;;;;;;29.60;74.70;;;29.76;45.10;98953.34;4967615;28;123572;-78
2023/08/22 00:08:20;;;;;;;;;;;29.60;75.50;;;29.71;45.32;98954.69;4983230;28;123917;-78
2023/08/22 00:11:08;;;;;;;;;;;29.50;74.90;;;29.67;45.26;98956.00;4981133;28;121270;-79
2023/08/22 00:13:45;;;;;;;;;;;29.50;75.00;;;29.65;45.29;98961.31;4979111;28;119862;-79
2023/08/22 00:16:18;;;;;;;;;;;29.40;75.10;;;29.64;45.47;98959.72;4975692;28;123833;-79
2023/08/22 00:19:48;;;;;;;;;;;29.40;75.30;;;29.59;45.48;98955.31;4978509;28;125721;-79
2023/08/22 00:22:23;;;;;;;;;;;29.40;75.50;;;29.56;45.74;98950.50;4953864;28;119365;-79
2023/08/22 00:24:54;;;;;;;;;;;29.30;75.80;;;29.55;46.05;98953.75;4969033;28;118974;-79
2023/08/22 00:27:21;;;;;;;;;;;29.30;76.00;;;29.52;46.26;98953.38;4979967;28;124190;-79
2023/08/22 00:30:07;;;;;;;;;;;29.30;76.10;;;29.48;46.12;98941.28;4949739;28;122977;-79
2023/08/22 00:32:33;;;;;;;;;;;29.30;76.10;;;29.43;45.98;98950.34;4984469;28;119424;-79
2023/08/22 00:35:19;;;;;;;;;;;29.20;76.20;;;29.38;46.17;98956.53;4976641;28;119057;-79
2023/08/22 00:37:45;;;;;;;;;;;29.20;76.30;;;29.36;46.02;98944.78;4990368;28;124188;-79
2023/08/22 00:40:21;;;;;;;;;;;;;;;;;;;;;
2023/08/22 00:46:24;;;;;;;;;;;29.10;76.80;;;29.25;46.54;98947.03;4983277;28;120748;-79
2023/08/22 00:48:50;;;;;;;;;;;29.10;77.00;;;29.22;46.38;98945.06;4962552;28;123579;-79
2023/08/22 00:51:20;;;;;;;;;;;29.00;77.10;;;29.20;47.00;98936.16;4979825;28;124551;-80
2023/08/22 00:53:49;;;;;;;;;;;29.00;77.20;;;29.19;46.76;98934.53;4981008;28;120178;-79
2023/08/22 00:56:21;;;;;;;;;;;29.00;77.40;;;29.18;46.66;98941.50;4968702;28;119027;-79
2023/08/22 00:58:58;;;;;;;;;;;28.90;77.50;;;29.16;46.81;98941.91;4955884;28;124279;-79
2023/08/22 01:01:45;;;;;;;;;;;28.90;77.70;;;29.10;47.06;98935.13;4970894;28;123959;-79
2023/08/22 01:04:12;;;;;;;;;;;28.90;78.00;;;29.09;47.32;98932.69;4973644;28;118652;-79
2023/08/22 01:07:28;;;;;;;;;;;28.90;78.20;;;29.05;47.15;98930.72;4972287;28;119569;-80
2023/08/22 01:14:07;;;;;;;;;;;28.80;78.50;;;28.97;47.22;98925.59;4982443;28;124721;-79
2023/08/22 01:16:47;;;;;;;;;;;28.70;78.70;;;28.92;47.66;98935.41;4947229;28;119212;-79
2023/08/22 01:19:23;;;;;;;;;;;28.70;79.00;;;28.93;47.82;98931.31;4930963;28;118836;-79
2023/08/22 01:21:50;;;;;;;;;;;28.70;79.20;;;28.92;48.00;98924.03;4974742;28;124244;-79
2023/08/22 01:24:28;;;;;;;;;;;28.70;79.50;;;28.91;47.86;98924.44;4965978;28;123751;-79
2023/08/22 01:26:57;;;;;;;;;;;28.70;79.60;;;28.89;47.84;98919.22;4970255;28;119564;-79
2023/08/22 01:29:59;;;;;;;;;;;28.60;79.70;;;28.86;48.07;98920.09;4962120;28;118647;-79
2023/08/22 01:32:58;;;;;;;;;;;28.60;79.80;;;28.79;47.98;98918.16;4959154;28;124652;-79
2023/08/22 01:35:37;;;;;;;;;;;28.60;80.00;;;28.77;48.01;98923.47;4938183;28;123700;-78
2023/08/22 01:38:12;;;;;;;;;;;28.50;80.10;;;28.76;48.13;98927.56;4949349;28;119156;-78
2023/08/22 01:40:57;;;;;;;;;;;28.50;80.30;;;28.72;48.15;98920.31;4945854;28;119062;-79
2023/08/22 01:46:46;;;;;;;;;;;28.50;80.50;;;28.65;48.56;98929.00;4953036;28;124604;-78
2023/08/22 01:49:37;;;;;;;;;;;28.40;80.60;;;28.63;48.36;98929.41;4964534;28;119692;-78
2023/08/22 01:55:50;;;;;;;;;;;28.40;80.80;;;28.55;48.52;98923.03;4938257;28;124616;-78
2023/08/22 01:59:02;;;;;;;;;;;28.30;80.80;;;28.51;48.38;98919.47;4959569;28;124124;-78
2023/08/22 02:02:13;;;;;;;;;;;28.30;80.90;;;28.49;48.39;98919.09;4924621;28;120382;-78
2023/08/22 02:04:45;;;;;;;;;;;28.30;81.10;;;28.47;48.34;98915.06;4939648;28;119601;-78
2023/08/22 02:07:11;;;;;;;;;;;28.20;81.30;;;28.46;48.72;98922.00;4926706;28;124353;-78
2023/08/22 02:09:37;;;;;;;;;;;28.20;81.50;;;28.47;48.93;98917.91;4933117;28;123809;-78
2023/08/22 02:12:33;;;;;;;;;;;28.20;81.70;;;28.44;48.63;98922.41;4948261;28;119511;-78
2023/08/22 02:15:02;;;;;;;;;;;28.20;81.80;;;28.43;48.71;98915.13;4933694;28;118597;-78
2023/08/22 02:21:00;;;;;;;;;;;28.20;82.10;;;28.36;48.98;98918.03;4997955;28;124830;-78
2023/08/22 02:23:51;;;;;;;;;;;28.10;82.30;;;28.31;49.01;98912.84;4975762;28;119119;-78
2023/08/22 02:29:58;;;;;;;;;;;28.10;82.60;;;28.24;49.34;98916.63;4945080;28;124854;-78
2023/08/22 02:32:47;;;;;;;;;;;28.00;82.80;;;28.20;49.21;98908.13;4983846;28;123436;-78
2023/08/22 02:35:39;;;;;;;;;;;28.00;83.00;;;28.16;49.35;98915.91;4993518;28;118161;-78
2023/08/22 02:38:09;;;;;;;;;;;28.00;83.20;;;28.14;49.70;98917.56;5004904;28;118904;-78
2023/08/22 02:43:34;;;;;;;;;;;27.90;83.50;;;28.11;49.94;98922.06;5001966;28;124213;-78
2023/08/22 02:46:25;;;;;;;;;;;27.90;83.80;;;28.08;49.94;98916.47;4990178;28;119321;-78
2023/08/22 02:49:35;;;;;;;;;;;27.90;84.10;;;28.05;50.09;98918.13;4977892;28;117606;-78
2023/08/22 02:52:10;;;;;;;;;;;27.80;84.20;;;28.03;50.10;98926.25;4989990;28;127305;-78
2023/08/22 02:54:50;;;;;;;;;;;27.80;84.40;;;28.01;50.31;98925.88;4976578;28;123866;-78
2023/08/22 03:04:22;;;;;;;;;;;27.70;84.90;;;27.93;50.30;98921.53;4972230;28;125172;-79
2023/08/22 03:06:48;;;;;;;;;;;27.70;85.00;;;27.94;50.26;98923.13;4981920;28;124794;-78
2023/08/22 03:09:45;;;;;;;;;;;27.70;85.20;;;27.92;50.34;98922.78;4986881;28;119455;-79
2023/08/22 03:12:51;;;;;;;;;;;27.70;85.40;;;27.88;50.48;98919.97;4995142;28;118222;-79
2023/08/22 03:16:00;;;;;;;;;;;27.70;85.50;;;27.85;50.49;98920.81;4989043;28;124740;-79
2023/08/22 03:19:21;;;;;;;;;;;27.60;85.50;;;27.83;50.59;98916.78;4983967;28;124027;-79
2023/08/22 03:21:48;;;;;;;;;;;27.60;85.80;;;27.81;50.82;98922.91;5001596;28;119496;-78
2023/08/22 03:24:30;;;;;;;;;;;27.60;86.10;;;27.80;50.89;98912.78;4988049;28;118100;-77
2023/08/22 03:35:01;;;;;;;;;;;27.50;87.00;;;27.70;51.21;98917.34;4946179;28;119523;-79
2023/08/22 03:37:30;;;;;;;;;;;27.50;87.00;;;27.68;51.65;98919.00;4910340;28;118917;-79
2023/08/22 03:40:11;;;;;;;;;;;27.40;87.30;;;27.67;51.51;98915.38;4945148;28;124365;-79
2023/08/22 03:42:40;;;;;;;;;;;27.40;87.60;;;27.67;51.53;98921.03;4937425;28;123190;-79
2023/08/22 03:45:16;;;;;;;;;;;27.40;87.80;;;27.66;51.71;98918.63;4938852;28;118185;-78
2023/08/22 03:48:34;;;;;;;;;;;27.40;87.90;;;27.61;51.69;98916.25;4946176;28;118502;-79
2023/08/22 03:51:27;;;;;;;;;;;27.40;88.20;;;27.56;51.83;98917.50;4944909;28;124757;-79
2023/08/22 03:54:18;;;;;;;;;;;27.40;88.40;;;27.53;51.89;98916.31;4925035;28;124061;-79
2023/08/22 03:56:50;;;;;;;;;;;27.30;88.60;;;27.53;51.78;98922.00;4942077;28;120363;-79
2023/08/22 03:59:34;;;;;;;;;;;27.30;88.80;;;27.51;52.28;98926.50;4929496;28;119629;-79
2023/08/22 04:02:23;;;;;;;;;;;27.20;88.90;;;27.47;52.25;98920.06;4930549;28;124280;-78
2023/08/22 04:05:02;;;;;;;;;;;27.30;89.10;;;27.47;52.15;98912.34;4933929;28;125572;-79
2023/08/22 04:08:25;;;;;;;;;;;27.20;89.30;;;27.42;52.14;98918.50;4928902;28;119492;-79
2023/08/22 04:14:03;;;;;;;;;;;27.20;89.70;;;27.41;52.25;98918.94;4876613;28;124277;-79
2023/08/22 04:16:57;;;;;;;;;;;27.20;89.80;;;27.39;52.28;98924.22;4871596;28;122968;-79
2023/08/22 04:20:11;;;;;;;;;;;27.10;89.80;;;27.37;52.18;98926.69;4888374;28;122198;-79
2023/08/22 04:26:13;;;;;;;;;;;27.10;90.00;;;27.33;52.32;98935.25;4877768;28;125426;-79
2023/08/22 04:28:51;;;;;;;;;;;27.10;90.00;;;27.31;52.15;98938.47;4886983;28;122069;-79
2023/08/22 04:31:24;;;;;;;;;;;27.10;90.00;;;27.33;52.27;98943.75;4871591;28;118778;-79
2023/08/22 04:33:59;;;;;;;;;;;27.10;90.00;;;27.31;52.28;98944.16;4867110;28;118644;-79
2023/08/22 04:36:26;;;;;;;;;;;27.00;90.00;;;27.30;52.43;98936.09;4882650;28;124484;-79
2023/08/22 04:39:13;;;;;;;;;;;27.00;90.00;;;27.27;52.38;98940.56;4877804;28;124464;-78
2023/08/22 04:41:51;;;;;;;;;;;27.00;90.00;;;27.25;52.53;98945.84;4901713;28;118911;-78
2023/08/22 04:44:21;;;;;;;;;;;27.00;90.10;;;27.25;52.40;98956.41;4926019;28;117887;-78
2023/08/22 04:46:51;;;;;;;;;;;26.90;90.10;;;27.24;52.54;98957.63;4900698;28;124706;-78
2023/08/22 04:49:17;;;;;;;;;;;26.90;90.10;;;27.24;52.21;98954.78;4947709;28;123357;-79
2023/08/22 04:51:59;;;;;;;;;;;27.00;90.20;;;27.23;52.17;98965.31;4976035;28;120114;-79
2023/08/22 04:57:47;;;;;;;;;;;26.90;90.30;;;27.20;52.33;98957.66;4974355;28;124856;-77
2023/08/22 05:03:46;;;;;;;;;;;26.90;90.40;;;27.18;52.51;98962.94;4937506;28;119708;-77
2023/08/22 05:06:13;;;;;;;;;;;26.90;90.40;;;27.19;52.67;98967.41;4940598;28;118199;-77
2023/08/22 05:09:00;;;;;;;;;;;26.90;90.40;;;27.19;52.32;98970.25;4936407;28;124262;-77
2023/08/22 05:11:44;;;;;;;;;;;26.90;90.40;;;27.20;52.05;98980.34;4951498;28;124214;-78
2023/08/22 05:14:27;;;;;;;;;;;26.90;90.40;;;27.18;52.01;98973.50;4940563;28;119554;-78
2023/08/22 05:17:44;;;;;;;;;;;26.90;90.30;;;27.17;51.94;98972.69;4932866;28;118661;-78
2023/08/22 05:20:16;;;;;;;;;;;26.90;90.30;;;27.18;51.90;98979.97;4968214;28;124217;-78
2023/08/22 05:23:21;;;;;;;;;;;26.80;90.30;;;27.18;51.99;98974.28;4970482;28;122753;-78
2023/08/22 05:25:47;;;;;;;;;;;26.90;90.30;;;27.22;51.86;98971.44;4932315;28;120015;-78
2023/08/22 05:28:21;;;;;;;;;;;26.90;90.20;;;27.26;51.51;98975.81;4929070;28;118128;-78
2023/08/22 05:31:04;;;;;;;;;;;26.90;90.20;;;27.28;51.40;98972.59;4902850;28;124753;-78
2023/08/22 05:33:39;;;;;;;;;;;26.90;90.20;;;27.28;51.50;98972.59;4928979;28;124174;-79
2023/08/22 05:36:12;;;;;;;;;;;26.90;90.20;;;27.28;51.57;98976.22;4926579;28;120064;-79
2023/08/22 05:39:21;;;;;;;;;;;26.90;90.10;;;27.25;51.25;98974.22;4907881;28;117962;-79
2023/08/22 05:42:00;;;;;;;;;;;26.90;90.10;;;27.30;51.20;98970.94;4909343;28;124228;-79
2023/08/22 05:44:31;;;;;;;;;;;26.90;90.00;;;27.35;51.42;98963.16;4958165;28;122652;-78
2023/08/22 05:47:08;;;;;;;;;;;26.90;90.00;;;27.37;51.24;98974.91;4964349;28;121078;-78
2023/08/22 05:49:37;;;;;;;;;;;27.00;90.00;;;27.40;51.09;98965.56;4960878;28;119645;-78
2023/08/22 05:52:04;;;;;;;;;;;27.00;90.00;;;27.44;50.96;98969.16;4964066;28;124627;-78
2023/08/22 05:55:08;;;;;;;;;;;27.00;90.00;;;27.47;50.99;98971.16;4943486;28;124363;-78
2023/08/22 05:57:56;;;;;;;;;;;27.10;89.90;;;27.46;50.80;98966.72;4964209;28;119719;-78
2023/08/22 06:00:31;;;;;;;;;;;27.10;89.70;;;27.48;50.83;98970.72;4967184;28;118243;-78
2023/08/22 06:03:02;;;;;;;;;;;27.10;89.60;;;27.53;50.82;98973.09;4949589;28;124199;-79
2023/08/22 06:05:37;;;;;;;;;;;27.10;89.50;;;27.58;50.31;98971.84;4963426;28;124002;-78
2023/08/22 06:08:03;;;;;;;;;;;27.20;89.50;;;27.63;50.46;98977.03;4943445;28;119638;-78
2023/08/22 06:10:38;;;;;;;;;;;27.20;89.50;;;27.66;50.30;98970.53;4967215;28;118336;-78
2023/08/22 06:13:05;;;;;;;;;;;27.20;89.40;;;27.72;50.50;98971.66;4945805;28;123343;-78
2023/08/22 06:15:31;;;;;;;;;;;27.30;89.40;;;27.77;50.28;98974.03;4955379;28;123877;-78
2023/08/22 06:18:00;;;;;;;;;;;27.30;89.40;;;27.82;50.10;98969.94;4984280;28;119613;-78
2023/08/22 06:20:26;;;;;;;;;;;27.40;89.30;;;27.87;50.28;98971.53;4990042;28;118423;-78
2023/08/22 06:22:56;;;;;;;;;;;27.40;89.30;;;27.92;50.44;98971.06;4990739;28;124145;-78
2023/08/22 06:25:25;;;;;;;;;;;27.40;89.30;;;27.94;50.25;98963.72;4977884;28;124269;-78
2023/08/22 06:31:18;;;;;;;;;;;27.50;89.30;;;28.06;49.94;98968.00;4995895;28;119498;-79
2023/08/22 06:33:50;;;;;;;;;;;26.70;88.60;;;28.13;50.17;98967.91;4981390;28;125142;-78
2023/08/22 06:36:17;;;;;;;;;;;27.70;89.30;;;28.18;50.00;98964.59;4978791;28;124286;-78
2023/08/22 06:39:31;;;;;;;;;;;27.70;89.10;;;28.24;49.83;98964.09;4982359;28;120642;-78
2023/08/22 06:42:00;;;;;;;;;;;27.70;89.00;;;28.34;49.52;98968.81;4961793;28;120181;-78
2023/08/22 06:44:26;;;;;;;;;;;27.80;89.00;;;28.40;49.38;98967.13;4976786;28;124343;-78
2023/08/22 06:46:52;;;;;;;;;;;27.90;88.90;;;28.47;49.39;98964.19;4983082;28;124354;-78
2023/08/22 06:49:24;;;;;;;;;;;27.90;88.70;;;28.52;48.98;98965.75;4972208;28;119833;-79
2023/08/22 06:51:51;;;;;;;;;;;27.90;88.50;;;28.58;49.08;98967.66;4988291;28;118635;-77
2023/08/22 06:54:17;;;;;;;;;;;28.00;89.10;;;28.61;48.85;98963.97;4978549;28;123534;-78
2023/08/22 06:56:43;;;;;;;;;;;28.10;88.30;;;28.67;48.76;98972.00;4979537;28;124017;-79
2023/08/22 06:59:41;;;;;;;;;;;28.10;88.10;;;28.70;48.80;98971.16;4976252;28;120263;-78
2023/08/22 07:02:24;;;;;;;;;;;28.20;87.90;;;28.77;48.58;98973.84;4954612;28;118837;-78
2023/08/22 07:08:28;;;;;;;;;;;28.30;87.60;;;28.93;48.05;98981.72;4961644;28;123574;-78
2023/08/22 07:11:06;;;;;;;;;;;28.40;87.60;;;29.03;48.24;98984.38;4974992;28;119473;-78
2023/08/22 07:13:52;;;;;;;;;;;28.50;87.50;;;29.14;47.91;98981.38;4972938;28;118535;-78
2023/08/22 07:17:12;;;;;;;;;;;28.60;87.40;;;29.24;47.53;98979.59;4981534;28;123874;-78
2023/08/22 07:23:20;;;;;;;;;;;28.70;86.90;;;29.44;47.58;98988.13;4973750;28;119764;-78
2023/08/22 07:25:52;;;;;;;;;;;28.80;86.60;;;29.52;47.53;98979.00;4984370;28;118819;-79
2023/08/22 07:28:27;;;;;;;;;;;28.90;86.60;;;29.60;47.03;98976.03;4975134;28;124374;-79
2023/08/22 07:31:08;;;;;;;;;;;29.00;86.50;;;29.68;47.16;98978.31;4963849;28;123665;-79
2023/08/22 07:34:13;;;;;;;;;;;29.10;86.20;;;29.73;46.67;98980.66;4971901;28;120685;-78
2023/08/22 07:36:39;;;;;;;;;;;29.10;85.90;;;29.84;46.61;98989.00;4930174;28;119643;-78
2023/08/22 07:42:04;;;;;;;;;;;29.30;85.60;;;30.03;45.85;98990.22;4942483;28;124526;-78
2023/08/22 07:44:39;;;;;;;;;;;29.40;85.40;;;30.11;45.83;98980.25;4985152;28;119198;-78
2023/08/22 07:47:14;;;;;;;;;;;29.50;85.20;;;30.20;46.28;98982.53;4985893;28;118810;-79
2023/08/22 07:50:08;;;;;;;;;;;29.60;85.10;;;30.26;45.54;98985.69;4984690;28;124196;-79
2023/08/22 07:53:05;;;;;;;;;;;29.60;84.80;;;30.29;45.59;98985.59;4975141;28;123032;-79
2023/08/22 07:55:37;;;;;;;;;;;29.70;84.80;;;30.36;45.83;98990.34;4958409;28;118126;-79
2023/08/22 07:58:15;;;;;;;;;;;29.80;84.70;;;30.43;45.39;98987.31;4994228;28;118825;-79
2023/08/22 08:00:49;;;;;;;;;;;29.90;84.50;;;30.51;45.60;98993.66;4983831;28;124126;-78
2023/08/22 08:06:19;;;;;;;;;;;30.00;83.90;;;30.59;44.46;98986.53;4993703;28;118839;-78
2023/08/22 08:09:11;;;;;;;;;;;30.00;83.00;;;30.58;45.01;98990.66;5005079;28;118729;-78
2023/08/22 08:11:43;;;;;;;;;;;30.10;82.90;;;30.60;44.43;98988.13;4999828;28;124857;-79
2023/08/22 08:14:34;;;;;;;;;;;30.10;82.50;;;30.65;44.72;98986.81;4977926;28;123666;-78
2023/08/22 08:17:45;;;;;;;;;;;30.20;82.40;;;30.70;43.90;98989.94;4971790;28;118813;-78
2023/08/22 08:20:11;;;;;;;;;;;30.20;82.10;;;30.78;43.79;98993.41;5008524;28;118941;-78
2023/08/22 08:22:41;;;;;;;;;;;30.20;81.20;;;30.77;43.84;98992.63;4986568;28;124680;-79
2023/08/22 08:25:13;;;;;;;;;;;30.30;81.00;;;30.79;43.92;98986.47;4986970;28;123855;-79
2023/08/22 08:27:45;;;;;;;;;;;30.30;81.00;;;30.80;44.00;98991.75;4992341;28;120378;-79
2023/08/22 08:31:17;;;;;;;;;;;30.30;81.10;;;30.79;43.76;98992.97;5001500;28;119692;-79
2023/08/22 08:33:53;;;;;;;;;;;30.40;81.20;;;30.82;43.75;98994.19;4932564;28;124513;-79
2023/08/22 08:36:34;;;;;;;;;;;30.40;81.20;;;30.87;43.40;98992.81;4952842;28;124043;-79
2023/08/22 08:39:00;;;;;;;;;;;30.40;80.80;;;30.92;43.74;98987.38;4945910;28;119052;-78
2023/08/22 08:47:52;;;;;;;;;;;30.60;79.90;;;31.04;43.08;98983.81;4950831;28;125149;-78
2023/08/22 08:50:48;;;;;;;;;;;30.60;79.90;;;31.07;43.40;98984.97;4947529;28;119256;-78
2023/08/22 08:53:23;;;;;;;;;;;30.60;80.00;;;31.10;43.41;98972.66;4917796;28;117904;-78
2023/08/22 08:55:58;;;;;;;;;;;30.70;80.00;;;31.16;43.37;98985.13;4907430;28;124838;-79
2023/08/22 08:58:38;;;;;;;;;;;30.70;79.90;;;31.19;42.94;98984.25;4911050;28;124147;-78
2023/08/22 09:04:12;;;;;;;;;;;30.80;80.00;;;31.30;42.72;98977.44;4922080;28;119451;-79
2023/08/22 09:06:39;;;;;;;;;;;30.80;79.80;;;31.30;42.80;98972.53;4920100;28;124061;-79
2023/08/22 09:09:24;;;;;;;;;;;30.80;79.60;;;31.31;43.11;98979.84;4967497;28;123888;-79
2023/08/22 09:12:14;;;;;;;;;;;30.80;79.50;;;31.33;43.01;98971.63;4994481;28;119163;-78
2023/08/22 09:14:47;;;;;;;;;;;30.90;79.40;;;31.33;42.33;98973.69;4988805;28;118682;-79
2023/08/22 09:17:17;;;;;;;;;;;30.90;79.10;;;31.31;43.06;98979.84;4987461;28;124901;-79
2023/08/22 09:20:33;;;;;;;;;;;30.90;79.00;;;31.32;42.67;98986.34;4982067;28;123359;-79
2023/08/22 09:23:00;;;;;;;;;;;30.90;79.00;;;31.38;42.91;98978.88;4988746;28;120471;-79
2023/08/22 09:26:01;;;;;;;;;;;31.00;79.10;;;31.43;42.65;98975.47;4988994;28;119202;-79
2023/08/22 09:28:45;;;;;;;;;;;31.00;79.00;;;31.48;43.13;98966.34;4996019;28;125397;-79
2023/08/22 09:31:26;;;;;;;;;;;31.00;79.00;;;31.51;42.83;98965.44;4959581;28;123432;-80
2023/08/22 09:33:58;;;;;;;;;;;31.10;79.20;;;31.53;42.75;98959.28;4996129;28;119789;-79
2023/08/22 09:36:36;;;;;;;;;;;31.00;78.80;;;31.52;42.79;98961.34;4966294;28;118093;-79
2023/08/22 09:39:39;;;;;;;;;;;31.00;78.80;;;31.52;42.43;98966.28;4988266;28;123958;-79
2023/08/22 09:42:28;;;;;;;;;;;31.00;78.90;;;31.57;42.58;98955.09;4929407;28;123565;-79
2023/08/22 09:45:42;;;;;;;;;;;31.10;79.00;;;31.58;42.44;98956.69;4977322;28;119606;-79
2023/08/22 09:48:24;;;;;;;;;;;31.20;78.80;;;31.63;42.48;98950.41;4971422;28;118211;-80
2023/08/22 09:54:15;;;;;;;;;;;31.20;78.50;;;31.72;42.73;98949.75;4965539;28;123892;-79
2023/08/22 09:56:42;;;;;;;;;;;31.30;78.60;;;31.79;42.18;98940.97;4972776;28;119400;-80
2023/08/22 10:02:06;;;;;;;;;;;31.40;78.10;;;31.91;41.97;98953.69;4912344;28;127230;-79
2023/08/22 10:04:35;;;;;;;;;;;31.50;78.00;;;31.94;41.71;98947.06;4908586;28;123330;-80
2023/08/22 10:07:13;;;;;;;;;;;31.50;77.70;;;31.95;41.55;98947.91;4999522;28;119013;-80
2023/08/22 10:09:51;;;;;;;;;;;31.50;77.50;;;31.97;41.94;98945.38;4969549;28;118901;-80
2023/08/22 10:12:58;;;;;;;;;;;31.50;77.30;;;31.96;41.63;98938.06;4941221;28;124627;-80
2023/08/22 10:16:05;;;;;;;;;;;33.00;78.10;;;31.96;41.88;98938.06;4985070;28;123088;-80
2023/08/22 10:22:17;;;;;;;;;;;31.50;77.20;;;32.08;41.74;98940.94;4887102;28;120384;-79
2023/08/22 10:28:23;;;;;;;;;;;31.70;76.90;;;32.18;40.94;98933.28;4896340;28;124732;-80
2023/08/22 10:32:01;;;;;;;;;;;31.70;76.10;;;32.18;41.03;98932.47;4857224;28;118523;-79
2023/08/22 10:34:42;;;;;;;;;;;31.80;76.00;;;32.26;40.93;98942.44;4875751;28;118996;-80
2023/08/22 10:37:50;;;;;;;;;;;31.80;76.10;;;32.28;40.52;98926.41;4918172;28;125401;-79
2023/08/22 10:40:35;;;;;;;;;;;31.80;75.40;;;32.29;40.75;98928.00;4909144;28;124675;-79
2023/08/22 10:43:17;;;;;;;;;;;31.80;75.20;;;32.32;40.62;98927.13;4915911;28;120149;-79
2023/08/22 10:46:37;;;;;;;;;;;31.90;75.00;;;32.38;40.70;98918.75;4953830;28;118166;-79
2023/08/22 10:49:04;;;;;;;;;;;32.00;75.30;;;32.47;40.53;98933.19;4962548;28;124079;-79
2023/08/22 10:52:30;;;;;;;;;;;32.00;75.20;;;32.54;40.63;98921.53;4959480;28;123852;-81
2023/08/22 10:55:24;;;;;;;;;;;32.10;75.00;;;32.62;39.86;98922.09;4940947;28;118806;-80
2023/08/22 11:07:35;;;;;;;;;;;32.30;73.10;;;32.85;38.76;98926.59;4980827;28;119527;-79
2023/08/22 11:10:01;;;;;;;;;;;32.40;72.60;;;32.90;38.75;98920.31;4963183;28;119163;-79
2023/08/22 11:12:36;;;;;;;;;;;32.50;72.30;;;32.93;38.56;98912.84;4943220;28;124908;-78
2023/08/22 11:15:43;;;;;;;;;;;32.50;72.00;;;32.93;38.17;98902.19;4970305;28;124034;-79
2023/08/22 11:18:24;;;;;;;;;;;32.50;71.30;;;32.98;37.91;98910.19;4964397;28;119909;-79
2023/08/22 11:21:09;;;;;;;;;;;32.50;70.30;;;33.03;37.57;98911.72;4935348;28;119668;-80
2023/08/22 11:24:19;;;;;;;;;;;32.60;70.10;;;33.03;37.42;98914.56;4952223;28;123406;-80
2023/08/22 11:26:45;;;;;;;;;;;32.60;69.60;;;33.07;37.42;98915.22;4955474;28;123292;-80
2023/08/22 11:29:20;;;;;;;;;;;32.60;69.70;;;33.12;37.27;98916.72;4969240;28;119146;-80
2023/08/22 11:35:20;;;;;;;;;;;32.70;69.30;;;33.09;37.27;98926.22;4969669;28;124280;-79
2023/08/22 11:37:46;;;;;;;;;;;32.70;69.00;;;33.08;37.23;98911.13;4952939;28;124183;-79
2023/08/22 11:40:22;;;;;;;;;;;32.60;68.70;;;33.12;37.17;98913.84;4943512;28;118722;-79
2023/08/22 11:42:58;;;;;;;;;;;32.70;68.70;;;33.15;37.14;98907.97;4970035;28;118902;-80
2023/08/22 11:45:44;;;;;;;;;;;32.80;68.70;;;33.20;36.97;98907.41;4949945;28;124913;-80
2023/08/22 11:48:19;;;;;;;;;;;32.80;68.40;;;33.33;37.11;98912.28;4931362;28;124022;-79
2023/08/22 11:50:48;;;;;;;;;;;32.90;68.60;;;33.39;36.50;98916.94;4933572;28;118761;-79
2023/08/22 11:53:46;;;;;;;;;;;32.90;67.50;;;33.40;36.40;98906.31;4939001;28;118065;-79
2023/08/22 11:56:27;;;;;;;;;;;32.90;67.40;;;33.48;36.40;98910.50;4938549;28;123780;-79
2023/08/22 11:59:00;;;;;;;;;;;33.00;67.40;;;33.58;36.40;98911.38;4924859;28;125019;-79
2023/08/22 12:01:55;;;;;;;;;;;33.10;67.10;;;33.69;36.09;98917.50;4928258;28;119703;-79
2023/08/22 12:04:21;;;;;;;;;;;33.20;67.00;;;33.83;35.54;98905.50;4947428;28;120552;-79
2023/08/22 12:13:28;;;;;;;;;;;33.50;65.80;;;34.42;35.03;98884.75;4932747;28;123767;-79
2023/08/22 12:16:06;;;;;;;;;;;33.70;65.40;;;34.59;34.31;98886.09;4946609;28;119809;-79
2023/08/22 12:18:34;;;;;;;;;;;33.80;65.00;;;34.75;34.23;98879.28;4947505;28;123781;-79
2023/08/22 12:21:53;;;;;;;;;;;34.00;64.70;;;34.87;33.51;98883.25;4956221;28;123340;-79
2023/08/22 12:24:19;;;;;;;;;;;34.10;64.20;;;35.01;33.38;98871.16;4961554;28;120210;-79
2023/08/22 12:26:52;;;;;;;;;;;34.30;63.50;;;35.10;33.42;98879.00;4962514;28;119206;-79
2023/08/22 12:29:52;;;;;;;;;;;34.40;63.50;;;35.12;33.60;98883.00;4956697;28;124315;-79
2023/08/22 12:32:24;;;;;;;;;;;34.60;62.80;;;35.09;32.94;98869.59;4962522;28;122913;-79
2023/08/22 12:35:00;;;;;;;;;;;34.60;61.50;;;35.08;33.48;98870.84;4945909;28;117901;-79
2023/08/22 12:38:16;;;;;;;;;;;34.60;61.70;;;35.11;33.49;98867.03;4956671;28;118861;-79
2023/08/22 12:41:17;;;;;;;;;;;34.80;61.50;;;35.12;33.05;98873.59;4935970;28;123911;-79
2023/08/22 12:43:46;;;;;;;;;;;34.70;61.30;;;35.09;32.74;98860.16;4886009;28;123842;-78
2023/08/22 12:47:23;;;;;;;;;;;34.60;60.90;;;35.05;32.98;98871.00;4867389;28;119548;-80
2023/08/22 12:50:09;;;;;;;;;;;34.70;60.90;;;34.96;33.13;98854.56;4988085;28;118804;-79
2023/08/22 12:52:53;;;;;;;;;;;34.70;60.80;;;34.95;33.10;98861.56;4990297;28;124316;-79
2023/08/22 12:56:09;;;;;;;;;;;34.70;60.30;;;35.00;33.32;98858.06;4985451;28;123624;-79
2023/08/22 12:58:44;;;;;;;;;;;34.70;60.80;;;35.15;33.29;98864.81;4986542;28;118494;-78
2023/08/22 13:01:10;;;;;;;;;;;34.80;60.60;;;35.19;33.13;98861.75;4976919;28;118853;-79
2023/08/22 13:03:45;;;;;;;;;;;34.50;60.20;;;35.17;32.98;98856.50;4962067;28;124328;-79
2023/08/22 13:06:22;;;;;;;;;;;34.80;60.30;;;35.16;32.79;98852.03;4944859;28;123127;-79
2023/08/22 13:08:55;;;;;;;;;;;34.80;60.10;;;35.16;32.78;98852.03;4989368;28;120926;-79
2023/08/22 13:11:21;;;;;;;;;;;34.90;60.00;;;35.20;32.75;98849.00;4986851;28;119356;-79
2023/08/22 13:17:36;;;;;;;;;;;34.90;60.40;;;35.17;33.58;98856.50;4987367;28;123961;-80
2023/08/22 13:20:56;;;;;;;;;;;34.90;60.60;;;35.23;32.79;98853.00;4955938;28;119663;-79
2023/08/22 13:23:22;;;;;;;;;;;34.80;60.60;;;35.38;33.33;98845.31;4975575;28;118733;-79
2023/08/22 13:25:48;;;;;;;;;;;34.90;60.60;;;35.51;32.83;98848.78;4993028;28;124852;-79
2023/08/22 13:28:45;;;;;;;;;;;34.90;60.20;;;35.52;32.83;98838.91;4978214;28;124700;-79
2023/08/22 13:31:30;;;;;;;;;;;35.00;60.00;;;35.57;33.15;98846.91;4972268;28;119605;-79
2023/08/22 13:34:05;;;;;;;;;;;35.10;60.40;;;35.61;32.55;98833.16;4968116;28;118708;-79
2023/08/22 13:36:37;;;;;;;;;;;35.20;60.20;;;35.72;32.88;98831.84;4967703;28;124333;-79
2023/08/22 13:39:48;;;;;;;;;;;35.30;60.10;;;35.83;32.80;98827.16;4979865;28;124122;-79
2023/08/22 13:42:33;;;;;;;;;;;35.30;60.20;;;36.05;32.71;98818.28;4971014;28;119127;-78
2023/08/22 13:44:59;;;;;;;;;;;35.40;60.10;;;36.19;32.48;98810.25;4976251;28;119199;-78
2023/08/22 13:47:37;;;;;;;;;;;35.50;59.70;;;36.28;32.81;98816.75;4987321;28;124678;-78
2023/08/22 13:50:10;;;;;;;;;;;35.60;59.80;;;36.32;31.87;98825.19;4972395;28;123522;-79
2023/08/22 13:52:36;;;;;;;;;;;35.70;59.20;;;36.31;31.92;98817.88;4980422;28;119884;-79
2023/08/22 13:55:03;;;;;;;;;;;35.70;59.10;;;36.38;32.13;98808.88;4980285;28;118974;-79
2023/08/22 13:57:38;;;;;;;;;;;35.80;59.10;;;36.50;31.51;98812.78;4983583;28;124062;-79
2023/08/22 14:00:21;;;;;;;;;;;35.90;58.70;;;36.57;31.81;98809.56;4991517;28;123967;-79
2023/08/22 14:03:45;;;;;;;;;;;36.00;58.20;;;36.66;31.82;98808.72;4974748;28;120507;-79
2023/08/22 14:06:14;;;;;;;;;;;36.10;58.40;;;36.86;31.35;98820.41;4994259;28;120077;-79
2023/08/22 14:08:47;;;;;;;;;;;36.20;58.10;;;36.92;31.17;98806.91;4975208;28;124114;-79